sensor_id;sensor_type;location;lat;lon;timestamp;pressure;altitude;pressure_sealevel;temperature;humidity
72587;BME280;60621;49.576;11.024;2023-06-24T00:00:25;99274.97;;;16.36;82.46
72587;BME280;60621;49.576;11.024;2023-06-24T00:01:26;99270.00;;;16.34;82.63
72587;BME280;60621;49.576;11.024;2023-06-24T00:02:28;99273.81;;;16.33;82.71
72587;BME280;60621;49.576;11.024;2023-06-24T00:03:30;99263.50;;;16.32;83.38
72587;BME280;60621;49.576;11.024;2023-06-24T00:04:33;99275.69;;;16.29;83.40
72587;BME280;60621;49.576;11.024;2023-06-24T00:05:34;99272.22;;;16.25;83.56
72587;BME280;60621;49.576;11.024;2023-06-24T00:06:36;99273.69;;;16.23;83.66
72587;BME280;60621;49.576;11.024;2023-06-24T00:07:41;99267.22;;;16.20;83.42
72587;BME280;60621;49.576;11.024;2023-06-24T00:08:47;99270.28;;;16.22;83.92
72587;BME280;60621;49.576;11.024;2023-06-24T00:09:49;99271.09;;;16.26;83.64
72587;BME280;60621;49.576;11.024;2023-06-24T00:10:51;99266.47;;;16.20;83.41
72587;BME280;60621;49.576;11.024;2023-06-24T00:11:56;99267.56;;;16.15;83.55
72587;BME280;60621;49.576;11.024;2023-06-24T00:12:58;99269.47;;;16.15;83.66
72587;BME280;60621;49.576;11.024;2023-06-24T00:14:03;99265.72;;;16.19;83.79
72587;BME280;60621;49.576;11.024;2023-06-24T00:15:06;99275.31;;;16.31;83.47
72587;BME280;60621;49.576;11.024;2023-06-24T00:16:09;99268.03;;;16.24;83.10
72587;BME280;60621;49.576;11.024;2023-06-24T00:17:10;99268.38;;;16.19;83.76
72587;BME280;60621;49.576;11.024;2023-06-24T00:18:12;99263.06;;;16.23;83.50
72587;BME280;60621;49.576;11.024;2023-06-24T00:19:14;99266.13;;;16.28;83.50
72587;BME280;60621;49.576;11.024;2023-06-24T00:20:16;99269.25;;;16.37;83.02
72587;BME280;60621;49.576;11.024;2023-06-24T00:21:19;99266.97;;;16.36;82.52
72587;BME280;60621;49.576;11.024;2023-06-24T00:22:21;99268.03;;;16.28;82.66
72587;BME280;60621;49.576;11.024;2023-06-24T00:23:24;99266.13;;;16.25;82.72
72587;BME280;60621;49.576;11.024;2023-06-24T00:24:28;99259.22;;;16.17;82.66
72587;BME280;60621;49.576;11.024;2023-06-24T00:25:30;99258.00;;;16.07;83.22
72587;BME280;60621;49.576;11.024;2023-06-24T00:26:32;99263.28;;;16.03;83.21
72587;BME280;60621;49.576;11.024;2023-06-24T00:27:33;99263.22;;;16.00;83.52
72587;BME280;60621;49.576;11.024;2023-06-24T00:28:35;99264.78;;;16.01;83.58
72587;BME280;60621;49.576;11.024;2023-06-24T00:29:37;99258.28;;;15.98;83.75
72587;BME280;60621;49.576;11.024;2023-06-24T00:30:41;99264.50;;;16.09;83.47
72587;BME280;60621;49.576;11.024;2023-06-24T00:31:52;99265.31;;;16.17;83.24
72587;BME280;60621;49.576;11.024;2023-06-24T00:33:05;99264.25;;;16.29;82.68
72587;BME280;60621;49.576;11.024;2023-06-24T00:34:10;99256.28;;;16.29;82.24
72587;BME280;60621;49.576;11.024;2023-06-24T00:35:12;99255.19;;;16.37;82.29
72587;BME280;60621;49.576;11.024;2023-06-24T00:36:13;99256.72;;;16.38;81.62
72587;BME280;60621;49.576;11.024;2023-06-24T00:37:15;99251.72;;;16.33;81.57
72587;BME280;60621;49.576;11.024;2023-06-24T00:38:16;99254.06;;;16.38;81.73
72587;BME280;60621;49.576;11.024;2023-06-24T00:39:18;99258.25;;;16.39;81.62
72587;BME280;60621;49.576;11.024;2023-06-24T00:40:19;99252.47;;;16.30;80.93
72587;BME280;60621;49.576;11.024;2023-06-24T00:41:23;99253.84;;;16.13;81.80
72587;BME280;60621;49.576;11.024;2023-06-24T00:42:25;99252.63;;;16.03;81.92
72587;BME280;60621;49.576;11.024;2023-06-24T00:43:32;99249.88;;;15.93;82.64
72587;BME280;60621;49.576;11.024;2023-06-24T00:44:34;99246.88;;;15.98;83.00
72587;BME280;60621;49.576;11.024;2023-06-24T00:45:39;99249.59;;;16.01;82.48
72587;BME280;60621;49.576;11.024;2023-06-24T00:46:40;99250.34;;;16.02;82.42
72587;BME280;60621;49.576;11.024;2023-06-24T00:47:42;99245.75;;;15.95;82.47
72587;BME280;60621;49.576;11.024;2023-06-24T00:48:45;99242.66;;;15.93;82.82
72587;BME280;60621;49.576;11.024;2023-06-24T00:49:47;99242.28;;;15.95;82.63
72587;BME280;60621;49.576;11.024;2023-06-24T00:50:48;99240.41;;;15.95;82.42
72587;BME280;60621;49.576;11.024;2023-06-24T00:51:52;99240.72;;;15.86;81.97
72587;BME280;60621;49.576;11.024;2023-06-24T00:52:54;99239.81;;;15.72;82.96
72587;BME280;60621;49.576;11.024;2023-06-24T00:53:57;99234.75;;;15.63;83.19
72587;BME280;60621;49.576;11.024;2023-06-24T00:55:01;99246.88;;;15.60;83.65
72587;BME280;60621;49.576;11.024;2023-06-24T00:56:04;99234.34;;;15.61;83.95
72587;BME280;60621;49.576;11.024;2023-06-24T00:57:06;99238.13;;;15.60;83.62
72587;BME280;60621;49.576;11.024;2023-06-24T00:58:08;99229.78;;;15.58;83.86
72587;BME280;60621;49.576;11.024;2023-06-24T00:59:13;99229.72;;;15.54;84.15
72587;BME280;60621;49.576;11.024;2023-06-24T01:00:15;99224.44;;;15.58;84.25
72587;BME280;60621;49.576;11.024;2023-06-24T01:01:19;99224.47;;;15.61;84.01
72587;BME280;60621;49.576;11.024;2023-06-24T01:02:21;99223.69;;;15.61;83.81
72587;BME280;60621;49.576;11.024;2023-06-24T01:03:25;99223.31;;;15.59;83.11
72587;BME280;60621;49.576;11.024;2023-06-24T01:04:27;99219.13;;;15.58;83.03
72587;BME280;60621;49.576;11.024;2023-06-24T01:05:30;99217.63;;;15.60;82.29
72587;BME280;60621;49.576;11.024;2023-06-24T01:06:37;99219.91;;;15.58;82.85
72587;BME280;60621;49.576;11.024;2023-06-24T01:07:46;99222.47;;;15.51;82.42
72587;BME280;60621;49.576;11.024;2023-06-24T01:08:51;99227.41;;;15.49;82.52
72587;BME280;60621;49.576;11.024;2023-06-24T01:09:58;99225.81;;;15.45;83.38
72587;BME280;60621;49.576;11.024;2023-06-24T01:11:00;99227.44;;;15.53;83.21
72587;BME280;60621;49.576;11.024;2023-06-24T01:12:02;99227.44;;;15.56;82.63
72587;BME280;60621;49.576;11.024;2023-06-24T01:13:03;99224.44;;;15.58;82.75
72587;BME280;60621;49.576;11.024;2023-06-24T01:14:05;99225.56;;;15.57;82.55
72587;BME280;60621;49.576;11.024;2023-06-24T01:15:07;99225.06;;;15.44;82.73
72587;BME280;60621;49.576;11.024;2023-06-24T01:16:10;99224.22;;;15.36;83.11
72587;BME280;60621;49.576;11.024;2023-06-24T01:17:19;99224.25;;;15.40;83.05
72587;BME280;60621;49.576;11.024;2023-06-24T01:18:32;99223.44;;;15.36;82.48
72587;BME280;60621;49.576;11.024;2023-06-24T01:21:53;99226.72;;;15.22;83.56
72587;BME280;60621;49.576;11.024;2023-06-24T01:25:38;99224.16;;;15.33;82.74
72587;BME280;60621;49.576;11.024;2023-06-24T01:30:38;99219.16;;;15.24;83.42
72587;BME280;60621;49.576;11.024;2023-06-24T01:31:59;99216.59;;;15.35;82.65
72587;BME280;60621;49.576;11.024;2023-06-24T01:33:07;99217.00;;;15.37;82.29
72587;BME280;60621;49.576;11.024;2023-06-24T01:35:28;99215.28;;;15.55;81.56
72587;BME280;60621;49.576;11.024;2023-06-24T01:36:34;99210.78;;;15.59;81.07
72587;BME280;60621;49.576;11.024;2023-06-24T01:37:42;99214.28;;;15.64;81.13
72587;BME280;60621;49.576;11.024;2023-06-24T01:38:57;99206.09;;;15.83;80.01
72587;BME280;60621;49.576;11.024;2023-06-24T01:40:09;99214.94;;;15.98;78.52
72587;BME280;60621;49.576;11.024;2023-06-24T01:41:14;99214.94;;;15.98;78.17
72587;BME280;60621;49.576;11.024;2023-06-24T01:42:19;99212.59;;;15.89;78.06
72587;BME280;60621;49.576;11.024;2023-06-24T01:43:23;99213.13;;;15.65;78.75
72587;BME280;60621;49.576;11.024;2023-06-24T01:44:27;99207.50;;;15.36;81.22
72587;BME280;60621;49.576;11.024;2023-06-24T01:45:36;99213.47;;;15.26;81.16
72587;BME280;60621;49.576;11.024;2023-06-24T01:46:39;99211.56;;;15.26;81.28
72587;BME280;60621;49.576;11.024;2023-06-24T01:47:45;99206.25;;;15.26;81.39
72587;BME280;60621;49.576;11.024;2023-06-24T01:48:49;99207.22;;;15.11;82.10
72587;BME280;60621;49.576;11.024;2023-06-24T01:49:54;99202.56;;;15.04;81.55
72587;BME280;60621;49.576;11.024;2023-06-24T01:51:02;99207.88;;;15.01;81.79
72587;BME280;60621;49.576;11.024;2023-06-24T01:52:05;99208.25;;;15.03;81.81
72587;BME280;60621;49.576;11.024;2023-06-24T01:53:09;99205.56;;;14.99;81.64
72587;BME280;60621;49.576;11.024;2023-06-24T01:54:12;99203.53;;;14.89;82.44
72587;BME280;60621;49.576;11.024;2023-06-24T01:55:16;99194.75;;;14.85;82.59
72587;BME280;60621;49.576;11.024;2023-06-24T01:56:21;99190.88;;;14.79;82.19
72587;BME280;60621;49.576;11.024;2023-06-24T01:57:25;99189.22;;;14.67;83.09
72587;BME280;60621;49.576;11.024;2023-06-24T01:58:30;99195.63;;;14.63;83.55
72587;BME280;60621;49.576;11.024;2023-06-24T01:59:33;99195.19;;;14.60;83.44
72587;BME280;60621;49.576;11.024;2023-06-24T02:00:35;99188.41;;;14.63;83.72
72587;BME280;60621;49.576;11.024;2023-06-24T02:01:38;99192.84;;;14.82;83.15
72587;BME280;60621;49.576;11.024;2023-06-24T02:02:42;99190.78;;;15.02;82.62
72587;BME280;60621;49.576;11.024;2023-06-24T02:03:45;99191.72;;;15.17;81.74
72587;BME280;60621;49.576;11.024;2023-06-24T02:04:49;99192.44;;;15.14;81.24
72587;BME280;60621;49.576;11.024;2023-06-24T02:05:54;99191.56;;;15.02;81.37
72587;BME280;60621;49.576;11.024;2023-06-24T02:07:00;99196.47;;;15.00;81.71
72587;BME280;60621;49.576;11.024;2023-06-24T02:08:03;99187.69;;;14.96;82.03
72587;BME280;60621;49.576;11.024;2023-06-24T02:09:06;99191.47;;;14.95;82.26
72587;BME280;60621;49.576;11.024;2023-06-24T02:10:09;99192.16;;;14.89;82.16
72587;BME280;60621;49.576;11.024;2023-06-24T02:11:12;99182.22;;;14.85;82.15
72587;BME280;60621;49.576;11.024;2023-06-24T02:12:15;99188.28;;;14.82;82.50
72587;BME280;60621;49.576;11.024;2023-06-24T02:13:18;99189.81;;;14.83;82.07
72587;BME280;60621;49.576;11.024;2023-06-24T02:14:20;99199.13;;;15.00;81.51
72587;BME280;60621;49.576;11.024;2023-06-24T02:15:22;99190.88;;;15.09;80.99
72587;BME280;60621;49.576;11.024;2023-06-24T02:16:25;99196.66;;;15.15;80.96
72587;BME280;60621;49.576;11.024;2023-06-24T02:17:28;99187.69;;;15.30;80.40
72587;BME280;60621;49.576;11.024;2023-06-24T02:18:31;99189.22;;;15.31;79.78
72587;BME280;60621;49.576;11.024;2023-06-24T02:19:33;99185.22;;;15.14;79.91
72587;BME280;60621;49.576;11.024;2023-06-24T02:20:36;99184.22;;;14.92;80.82
72587;BME280;60621;49.576;11.024;2023-06-24T02:21:39;99185.69;;;14.86;81.01
72587;BME280;60621;49.576;11.024;2023-06-24T02:22:44;99184.81;;;14.78;81.55
72587;BME280;60621;49.576;11.024;2023-06-24T02:23:47;99180.53;;;14.70;81.79
72587;BME280;60621;49.576;11.024;2023-06-24T02:24:50;99188.44;;;14.67;81.72
72587;BME280;60621;49.576;11.024;2023-06-24T02:25:52;99192.66;;;14.68;81.74
72587;BME280;60621;49.576;11.024;2023-06-24T02:26:56;99186.22;;;14.69;81.97
72587;BME280;60621;49.576;11.024;2023-06-24T02:27:58;99193.59;;;14.82;81.90
72587;BME280;60621;49.576;11.024;2023-06-24T02:29:00;99183.63;;;14.76;81.33
72587;BME280;60621;49.576;11.024;2023-06-24T02:30:03;99187.72;;;14.70;82.18
72587;BME280;60621;49.576;11.024;2023-06-24T02:31:08;99191.09;;;14.67;82.54
72587;BME280;60621;49.576;11.024;2023-06-24T02:32:11;99191.97;;;14.74;82.68
72587;BME280;60621;49.576;11.024;2023-06-24T02:33:13;99197.41;;;14.85;82.23
72587;BME280;60621;49.576;11.024;2023-06-24T02:34:15;99189.28;;;15.01;81.67
72587;BME280;60621;49.576;11.024;2023-06-24T02:35:17;99190.53;;;15.14;80.77
72587;BME280;60621;49.576;11.024;2023-06-24T02:36:18;99190.16;;;15.12;80.84
72587;BME280;60621;49.576;11.024;2023-06-24T02:37:20;99194.84;;;14.92;80.93
72587;BME280;60621;49.576;11.024;2023-06-24T02:38:22;99187.97;;;14.88;81.57
72587;BME280;60621;49.576;11.024;2023-06-24T02:39:23;99185.31;;;14.88;81.59
72587;BME280;60621;49.576;11.024;2023-06-24T02:40:25;99185.75;;;14.93;81.60
72587;BME280;60621;49.576;11.024;2023-06-24T02:41:28;99190.34;;;14.96;81.37
72587;BME280;60621;49.576;11.024;2023-06-24T02:42:30;99189.97;;;14.98;80.96
72587;BME280;60621;49.576;11.024;2023-06-24T02:43:32;99185.06;;;15.00;80.79
72587;BME280;60621;49.576;11.024;2023-06-24T02:44:34;99186.16;;;14.95;80.68
72587;BME280;60621;49.576;11.024;2023-06-24T02:45:35;99192.47;;;14.83;81.17
72587;BME280;60621;49.576;11.024;2023-06-24T02:46:38;99192.34;;;14.76;81.71
72587;BME280;60621;49.576;11.024;2023-06-24T02:47:43;99199.94;;;14.74;81.47
72587;BME280;60621;49.576;11.024;2023-06-24T02:48:48;99194.44;;;14.60;81.68
72587;BME280;60621;49.576;11.024;2023-06-24T02:49:50;99192.84;;;14.55;82.11
72587;BME280;60621;49.576;11.024;2023-06-24T02:50:53;99198.72;;;14.68;82.22
72587;BME280;60621;49.576;11.024;2023-06-24T02:51:55;99192.34;;;14.76;81.99
72587;BME280;60621;49.576;11.024;2023-06-24T02:52:57;99190.19;;;14.85;81.44
72587;BME280;60621;49.576;11.024;2023-06-24T02:53:59;99195.50;;;14.82;80.10
72587;BME280;60621;49.576;11.024;2023-06-24T02:55:01;99193.81;;;14.70;81.13
72587;BME280;60621;49.576;11.024;2023-06-24T02:56:06;99198.31;;;14.66;81.09
72587;BME280;60621;49.576;11.024;2023-06-24T02:57:08;99194.75;;;14.55;81.55
72587;BME280;60621;49.576;11.024;2023-06-24T02:58:11;99194.34;;;14.53;81.45
72587;BME280;60621;49.576;11.024;2023-06-24T02:59:12;99197.91;;;14.64;81.62
72587;BME280;60621;49.576;11.024;2023-06-24T03:00:14;99193.00;;;14.66;80.91
72587;BME280;60621;49.576;11.024;2023-06-24T03:01:17;99198.34;;;14.70;80.81
72587;BME280;60621;49.576;11.024;2023-06-24T03:02:19;99201.63;;;14.86;80.50
72587;BME280;60621;49.576;11.024;2023-06-24T03:03:21;99202.31;;;14.83;80.50
72587;BME280;60621;49.576;11.024;2023-06-24T03:04:24;99203.97;;;14.91;80.30
72587;BME280;60621;49.576;11.024;2023-06-24T03:05:26;99204.16;;;14.79;80.19
72587;BME280;60621;49.576;11.024;2023-06-24T03:06:28;99204.69;;;14.62;81.09
72587;BME280;60621;49.576;11.024;2023-06-24T03:07:30;99211.88;;;14.57;81.39
72587;BME280;60621;49.576;11.024;2023-06-24T03:08:32;99212.34;;;14.67;81.35
72587;BME280;60621;49.576;11.024;2023-06-24T03:09:34;99215.94;;;14.78;81.19
72587;BME280;60621;49.576;11.024;2023-06-24T03:10:39;99212.75;;;14.99;80.28
72587;BME280;60621;49.576;11.024;2023-06-24T03:11:44;99217.41;;;15.05;79.28
72587;BME280;60621;49.576;11.024;2023-06-24T03:12:46;99216.56;;;14.98;79.45
72587;BME280;60621;49.576;11.024;2023-06-24T03:13:48;99217.06;;;14.77;80.21
72587;BME280;60621;49.576;11.024;2023-06-24T03:14:50;99214.59;;;14.65;80.51
72587;BME280;60621;49.576;11.024;2023-06-24T03:15:51;99214.84;;;14.56;81.15
72587;BME280;60621;49.576;11.024;2023-06-24T03:16:53;99226.66;;;14.58;80.93
72587;BME280;60621;49.576;11.024;2023-06-24T03:17:55;99223.25;;;14.58;80.52
72587;BME280;60621;49.576;11.024;2023-06-24T03:18:57;99223.25;;;14.58;80.82
72587;BME280;60621;49.576;11.024;2023-06-24T03:19:59;99220.94;;;14.56;80.20
72587;BME280;60621;49.576;11.024;2023-06-24T03:21:00;99227.69;;;14.50;80.10
72587;BME280;60621;49.576;11.024;2023-06-24T03:22:03;99228.81;;;14.49;80.47
72587;BME280;60621;49.576;11.024;2023-06-24T03:23:06;99230.56;;;14.42;80.05
72587;BME280;60621;49.576;11.024;2023-06-24T03:24:07;99230.03;;;14.32;80.66
72587;BME280;60621;49.576;11.024;2023-06-24T03:25:09;99233.00;;;14.27;80.46
72587;BME280;60621;49.576;11.024;2023-06-24T03:26:11;99235.88;;;14.19;80.99
72587;BME280;60621;49.576;11.024;2023-06-24T03:27:12;99229.41;;;14.16;81.26
72587;BME280;60621;49.576;11.024;2023-06-24T03:28:14;99230.47;;;14.34;81.19
72587;BME280;60621;49.576;11.024;2023-06-24T03:29:15;99231.00;;;14.47;80.54
72587;BME280;60621;49.576;11.024;2023-06-24T03:30:17;99227.69;;;14.50;80.21
72587;BME280;60621;49.576;11.024;2023-06-24T03:31:18;99235.28;;;14.52;80.13
72587;BME280;60621;49.576;11.024;2023-06-24T03:32:24;99236.78;;;14.49;79.96
72587;BME280;60621;49.576;11.024;2023-06-24T03:33:26;99233.38;;;14.52;80.19
72587;BME280;60621;49.576;11.024;2023-06-24T03:34:28;99233.75;;;14.51;80.12
72587;BME280;60621;49.576;11.024;2023-06-24T03:35:30;99235.47;;;14.40;79.77
72587;BME280;60621;49.576;11.024;2023-06-24T03:36:34;99232.69;;;14.32;80.57
72587;BME280;60621;49.576;11.024;2023-06-24T03:37:36;99230.28;;;14.24;80.05
72587;BME280;60621;49.576;11.024;2023-06-24T03:38:37;99232.31;;;14.07;81.12
72587;BME280;60621;49.576;11.024;2023-06-24T03:39:39;99231.47;;;14.03;81.76
72587;BME280;60621;49.576;11.024;2023-06-24T03:40:40;99231.25;;;14.12;81.55
72587;BME280;60621;49.576;11.024;2023-06-24T03:41:43;99239.13;;;14.31;80.86
72587;BME280;60621;49.576;11.024;2023-06-24T03:42:45;99236.88;;;14.33;80.02
72587;BME280;60621;49.576;11.024;2023-06-24T03:43:46;99236.53;;;14.35;80.15
72587;BME280;60621;49.576;11.024;2023-06-24T03:44:48;99242.34;;;14.44;79.83
72587;BME280;60621;49.576;11.024;2023-06-24T03:45:49;99239.34;;;14.46;79.44
72587;BME280;60621;49.576;11.024;2023-06-24T03:46:51;99250.50;;;14.32;78.94
72587;BME280;60621;49.576;11.024;2023-06-24T03:47:53;99245.78;;;14.22;80.10
72587;BME280;60621;49.576;11.024;2023-06-24T03:48:55;99242.31;;;14.18;80.13
72587;BME280;60621;49.576;11.024;2023-06-24T03:49:56;99250.88;;;14.07;79.77
72587;BME280;60621;49.576;11.024;2023-06-24T03:50:58;99254.50;;;13.99;80.72
72587;BME280;60621;49.576;11.024;2023-06-24T03:51:59;99258.69;;;14.00;80.91
72587;BME280;60621;49.576;11.024;2023-06-24T03:53:02;99258.59;;;14.16;80.94
72587;BME280;60621;49.576;11.024;2023-06-24T03:54:04;99262.59;;;14.29;80.29
72587;BME280;60621;49.576;11.024;2023-06-24T03:55:05;99265.59;;;14.28;79.81
72587;BME280;60621;49.576;11.024;2023-06-24T03:56:07;99271.22;;;14.23;79.46
72587;BME280;60621;49.576;11.024;2023-06-24T03:57:09;99268.53;;;14.23;79.67
72587;BME280;60621;49.576;11.024;2023-06-24T03:58:11;99270.66;;;14.14;79.74
72587;BME280;60621;49.576;11.024;2023-06-24T03:59:12;99275.75;;;13.99;80.69
72587;BME280;60621;49.576;11.024;2023-06-24T04:00:14;99269.31;;;14.00;80.86
72587;BME280;60621;49.576;11.024;2023-06-24T04:01:22;99266.94;;;13.95;80.83
72587;BME280;60621;49.576;11.024;2023-06-24T04:02:24;99269.66;;;13.99;81.71
72587;BME280;60621;49.576;11.024;2023-06-24T04:03:26;99275.75;;;13.99;80.79
72587;BME280;60621;49.576;11.024;2023-06-24T04:04:27;99277.69;;;14.02;81.32
72587;BME280;60621;49.576;11.024;2023-06-24T04:05:30;99277.81;;;14.09;81.12
72587;BME280;60621;49.576;11.024;2023-06-24T04:06:31;99281.94;;;14.30;80.64
72587;BME280;60621;49.576;11.024;2023-06-24T04:07:33;99278.19;;;14.54;79.30
72587;BME280;60621;49.576;11.024;2023-06-24T04:08:36;99275.28;;;14.63;79.09
72587;BME280;60621;49.576;11.024;2023-06-24T04:09:41;99278.28;;;14.61;78.51
72587;BME280;60621;49.576;11.024;2023-06-24T04:10:43;99279.00;;;14.58;78.81
72587;BME280;60621;49.576;11.024;2023-06-24T04:11:45;99282.50;;;14.43;79.13
72587;BME280;60621;49.576;11.024;2023-06-24T04:12:46;99280.88;;;14.34;79.73
72587;BME280;60621;49.576;11.024;2023-06-24T04:13:48;99286.50;;;14.29;79.83
72587;BME280;60621;49.576;11.024;2023-06-24T04:14:50;99283.03;;;14.29;80.42
72587;BME280;60621;49.576;11.024;2023-06-24T04:15:52;99284.31;;;14.35;80.08
72587;BME280;60621;49.576;11.024;2023-06-24T04:16:54;99286.13;;;14.31;79.92
72587;BME280;60621;49.576;11.024;2023-06-24T04:17:55;99288.09;;;14.34;80.32
72587;BME280;60621;49.576;11.024;2023-06-24T04:18:57;99283.84;;;14.29;80.31
72587;BME280;60621;49.576;11.024;2023-06-24T04:19:59;99285.75;;;14.32;80.43
72587;BME280;60621;49.576;11.024;2023-06-24T04:21:01;99278.56;;;14.56;80.15
72587;BME280;60621;49.576;11.024;2023-06-24T04:22:03;99286.81;;;14.74;79.21
72587;BME280;60621;49.576;11.024;2023-06-24T04:23:04;99284.66;;;14.83;78.73
72587;BME280;60621;49.576;11.024;2023-06-24T04:24:11;99289.72;;;14.92;78.04
72587;BME280;60621;49.576;11.024;2023-06-24T04:25:12;99283.34;;;14.96;77.86
72587;BME280;60621;49.576;11.024;2023-06-24T04:26:14;99293.97;;;14.96;78.17
72587;BME280;60621;49.576;11.024;2023-06-24T04:27:16;99298.09;;;14.94;78.46
72587;BME280;60621;49.576;11.024;2023-06-24T04:28:18;99292.06;;;14.70;79.46
72587;BME280;60621;49.576;11.024;2023-06-24T04:29:19;99292.28;;;14.58;80.54
72587;BME280;60621;49.576;11.024;2023-06-24T04:30:21;99296.84;;;14.61;80.78
72587;BME280;60621;49.576;11.024;2023-06-24T04:31:22;99297.63;;;14.62;80.45
72587;BME280;60621;49.576;11.024;2023-06-24T04:32:24;99300.56;;;14.56;80.29
72587;BME280;60621;49.576;11.024;2023-06-24T04:33:26;99304.31;;;14.52;80.66
72587;BME280;60621;49.576;11.024;2023-06-24T04:34:28;99303.41;;;14.44;81.34
72587;BME280;60621;49.576;11.024;2023-06-24T04:35:30;99307.91;;;14.40;81.61
72587;BME280;60621;49.576;11.024;2023-06-24T04:36:32;99312.78;;;14.38;82.51
72587;BME280;60621;49.576;11.024;2023-06-24T04:37:33;99312.00;;;14.38;82.71
72587;BME280;60621;49.576;11.024;2023-06-24T04:38:35;99309.88;;;14.47;82.90
72587;BME280;60621;49.576;11.024;2023-06-24T04:39:37;99304.72;;;14.54;82.11
72587;BME280;60621;49.576;11.024;2023-06-24T04:40:38;99301.03;;;14.62;82.15
72587;BME280;60621;49.576;11.024;2023-06-24T04:41:40;99313.81;;;14.79;81.74
72587;BME280;60621;49.576;11.024;2023-06-24T04:42:41;99311.75;;;14.92;81.18
72587;BME280;60621;49.576;11.024;2023-06-24T04:43:43;99314.16;;;15.01;80.70
72587;BME280;60621;49.576;11.024;2023-06-24T04:44:45;99322.66;;;15.14;79.99
72587;BME280;60621;49.576;11.024;2023-06-24T04:45:46;99316.25;;;15.18;79.84
72587;BME280;60621;49.576;11.024;2023-06-24T04:46:48;99310.19;;;15.18;79.75
72587;BME280;60621;49.576;11.024;2023-06-24T04:47:52;99315.91;;;15.20;80.03
72587;BME280;60621;49.576;11.024;2023-06-24T04:48:54;99318.66;;;15.27;79.93
72587;BME280;60621;49.576;11.024;2023-06-24T04:49:55;99314.53;;;15.33;79.67
72587;BME280;60621;49.576;11.024;2023-06-24T04:50:57;99314.59;;;15.36;79.50
72587;BME280;60621;49.576;11.024;2023-06-24T04:52:00;99315.84;;;15.46;78.91
72587;BME280;60621;49.576;11.024;2023-06-24T04:53:02;99305.72;;;15.55;78.81
72587;BME280;60621;49.576;11.024;2023-06-24T04:54:04;99309.06;;;15.52;78.50
72587;BME280;60621;49.576;11.024;2023-06-24T04:55:06;99307.88;;;15.46;78.84
72587;BME280;60621;49.576;11.024;2023-06-24T04:56:08;99312.97;;;15.28;80.19
72587;BME280;60621;49.576;11.024;2023-06-24T04:57:23;99310.13;;;15.14;81.02
72587;BME280;60621;49.576;11.024;2023-06-24T04:58:25;99316.25;;;15.18;81.18
72587;BME280;60621;49.576;11.024;2023-06-24T04:59:27;99314.53;;;15.29;80.98
72587;BME280;60621;49.576;11.024;2023-06-24T05:00:28;99314.31;;;15.45;80.60
72587;BME280;60621;49.576;11.024;2023-06-24T05:01:30;99316.66;;;15.50;80.56
72587;BME280;60621;49.576;11.024;2023-06-24T05:02:31;99309.13;;;15.56;79.87
72587;BME280;60621;49.576;11.024;2023-06-24T05:03:34;99315.34;;;15.64;79.33
72587;BME280;60621;49.576;11.024;2023-06-24T05:04:35;99317.19;;;15.63;79.21
72587;BME280;60621;49.576;11.024;2023-06-24T05:05:37;99318.69;;;15.60;79.17
72587;BME280;60621;49.576;11.024;2023-06-24T05:06:39;99322.38;;;15.52;80.27
72587;BME280;60621;49.576;11.024;2023-06-24T05:07:40;99321.22;;;15.50;80.65
72587;BME280;60621;49.576;11.024;2023-06-24T05:08:42;99323.13;;;15.49;81.00
72587;BME280;60621;49.576;11.024;2023-06-24T05:09:48;99325.34;;;15.44;81.20
72587;BME280;60621;49.576;11.024;2023-06-24T05:10:49;99321.16;;;15.46;81.27
72587;BME280;60621;49.576;11.024;2023-06-24T05:11:51;99322.38;;;15.52;81.02
72587;BME280;60621;49.576;11.024;2023-06-24T05:12:52;99324.69;;;15.54;80.35
72587;BME280;60621;49.576;11.024;2023-06-24T05:13:54;99325.03;;;15.52;80.28
72587;BME280;60621;49.576;11.024;2023-06-24T05:14:55;99325.91;;;15.60;79.88
72587;BME280;60621;49.576;11.024;2023-06-24T05:15:57;99327.03;;;15.59;79.75
72587;BME280;60621;49.576;11.024;2023-06-24T05:16:59;99326.59;;;15.57;80.04
72587;BME280;60621;49.576;11.024;2023-06-24T05:18:01;99332.41;;;15.62;80.04
72587;BME280;60621;49.576;11.024;2023-06-24T05:19:03;99327.13;;;15.66;80.27
72587;BME280;60621;49.576;11.024;2023-06-24T05:20:05;99325.72;;;15.76;80.26
72587;BME280;60621;49.576;11.024;2023-06-24T05:21:06;99329.94;;;15.80;79.74
72587;BME280;60621;49.576;11.024;2023-06-24T05:22:09;99327.69;;;15.82;79.09
72587;BME280;60621;49.576;11.024;2023-06-24T05:23:10;99326.13;;;15.78;79.74
72587;BME280;60621;49.576;11.024;2023-06-24T05:24:12;99320.41;;;15.76;80.60
72587;BME280;60621;49.576;11.024;2023-06-24T05:25:13;99323.16;;;15.83;80.21
72587;BME280;60621;49.576;11.024;2023-06-24T05:26:15;99325.66;;;16.06;78.99
72587;BME280;60621;49.576;11.024;2023-06-24T05:27:17;99319.91;;;16.04;78.14
72587;BME280;60621;49.576;11.024;2023-06-24T05:28:18;99321.75;;;15.96;79.03
72587;BME280;60621;49.576;11.024;2023-06-24T05:29:20;99320.66;;;16.01;78.89
72587;BME280;60621;49.576;11.024;2023-06-24T05:30:22;99318.56;;;16.21;78.16
72587;BME280;60621;49.576;11.024;2023-06-24T05:31:23;99321.69;;;16.30;77.46
72587;BME280;60621;49.576;11.024;2023-06-24T05:32:25;99327.06;;;16.33;77.54
72587;BME280;60621;49.576;11.024;2023-06-24T05:33:26;99324.00;;;16.31;77.33
72587;BME280;60621;49.576;11.024;2023-06-24T05:34:28;99327.00;;;16.26;77.83
72587;BME280;60621;49.576;11.024;2023-06-24T05:35:29;99322.38;;;16.23;78.24
72587;BME280;60621;49.576;11.024;2023-06-24T05:36:31;99331.16;;;16.24;78.07
72587;BME280;60621;49.576;11.024;2023-06-24T05:37:33;99331.16;;;16.24;78.12
72587;BME280;60621;49.576;11.024;2023-06-24T05:38:34;99325.41;;;16.22;78.39